Time;durP1;ratioP1;P1;durP2;ratioP2;P2;SDS_P1;SDS_P2;PMS_P1;PMS_P2;Temp;Humidity;BMP_temperature;BMP_pressure;BME280_temperature;BME280_humidity;BME280_pressure;Samples;Min_cycle;Max_cycle;Signal;HPM_P1;HPM_P2
2023/09/17 00:02:11;;;;;;;7.33;5.07;;;;;;;;;;5032966;28;20025;-74
2023/09/17 00:04:37;;;;;;;8.03;4.83;;;;;;;;;;5024189;28;20068;-74
2023/09/17 00:07:02;;;;;;;5.57;4.23;;;;;;;;;;5043323;28;20483;-74
2023/09/17 00:09:27;;;;;;;9.48;5.53;;;;;;;;;;5040306;28;20345;-73
2023/09/17 00:11:52;;;;;;;9.63;5.13;;;;;;;;;;5036213;28;20016;-74
2023/09/17 00:14:18;;;;;;;8.77;4.67;;;;;;;;;;5030768;28;20032;-74
2023/09/17 00:16:43;;;;;;;7.07;4.65;;;;;;;;;;5032950;28;20430;-74
2023/09/17 00:19:08;;;;;;;7.95;5.00;;;;;;;;;;5024363;28;20021;-74
2023/09/17 00:21:33;;;;;;;11.88;5.68;;;;;;;;;;5020481;28;20029;-74
2023/09/17 00:23:58;;;;;;;9.30;4.60;;;;;;;;;;5022126;28;20021;-74
2023/09/17 00:26:24;;;;;;;10.93;5.70;;;;;;;;;;5027119;28;20028;-73
2023/09/17 00:28:49;;;;;;;10.07;6.03;;;;;;;;;;5026920;28;20148;-74
2023/09/17 00:31:15;;;;;;;12.15;5.68;;;;;;;;;;5025056;28;20029;-73
2023/09/17 00:33:40;;;;;;;9.53;6.33;;;;;;;;;;5025775;28;20071;-74
2023/09/17 00:36:05;;;;;;;12.77;6.37;;;;;;;;;;5028207;28;20771;-73
2023/09/17 00:38:30;;;;;;;9.03;6.47;;;;;;;;;;5020910;28;20029;-73
2023/09/17 00:40:55;;;;;;;12.90;5.77;;;;;;;;;;5029317;28;20275;-74
2023/09/17 00:43:21;;;;;;;11.80;6.97;;;;;;;;;;5025386;28;20500;-73
2023/09/17 00:45:47;;;;;;;13.20;7.07;;;;;;;;;;5028563;28;20276;-73
2023/09/17 00:48:12;;;;;;;9.07;6.80;;;;;;;;;;5023113;28;20017;-74
2023/09/17 00:50:38;;;;;;;12.35;7.30;;;;;;;;;;5029499;28;20982;-74
2023/09/17 00:53:05;;;;;;;13.93;6.47;;;;;;;;;;5024155;28;20499;-73
2023/09/17 00:55:30;;;;;;;15.23;7.25;;;;;;;;;;5022563;28;20041;-74
2023/09/17 00:57:56;;;;;;;12.40;7.43;;;;;;;;;;5026765;28;20025;-74
2023/09/17 01:00:21;;;;;;;10.85;7.25;;;;;;;;;;5024704;28;20053;-74
2023/09/17 01:02:47;;;;;;;11.38;7.30;;;;;;;;;;5027046;28;20446;-73
2023/09/17 01:05:13;;;;;;;11.35;6.53;;;;;;;;;;5025888;28;20029;-73
2023/09/17 01:07:38;;;;;;;9.52;6.43;;;;;;;;;;5029821;28;20023;-74
2023/09/17 01:10:04;;;;;;;11.23;6.93;;;;;;;;;;5031881;28;20021;-73
2023/09/17 01:12:31;;;;;;;9.40;6.57;;;;;;;;;;5030163;28;20022;-74
2023/09/17 01:14:56;;;;;;;10.70;7.18;;;;;;;;;;5027769;28;20029;-73
2023/09/17 01:17:24;;;;;;;13.13;7.72;;;;;;;;;;5022407;28;20028;-74
2023/09/17 01:19:52;;;;;;;9.48;6.75;;;;;;;;;;5028990;28;20018;-73
2023/09/17 01:22:34;;;;;;;12.38;6.70;;;;;;;;;;5036929;28;20075;-74
2023/09/17 01:25:23;;;;;;;10.25;7.00;;;;;;;;;;5029708;28;20025;-74
2023/09/17 01:27:49;;;;;;;11.82;7.00;;;;;;;;;;5027222;28;20029;-74
2023/09/17 01:30:21;;;;;;;15.77;7.50;;;;;;;;;;5040294;28;20530;-74
2023/09/17 01:32:46;;;;;;;8.60;6.00;;;;;;;;;;5042616;28;20024;-73
2023/09/17 01:35:13;;;;;;;14.13;7.25;;;;;;;;;;5031872;28;20033;-74
2023/09/17 01:37:41;;;;;;;11.57;6.70;;;;;;;;;;5031712;28;20121;-74
2023/09/17 01:40:10;;;;;;;18.27;7.38;;;;;;;;;;5029872;28;20506;-74
2023/09/17 01:42:36;;;;;;;12.48;7.60;;;;;;;;;;5033572;28;20016;-73
2023/09/17 01:45:02;;;;;;;10.27;5.93;;;;;;;;;;5035293;28;20108;-74
2023/09/17 01:47:28;;;;;;;10.23;6.80;;;;;;;;;;5027557;28;20714;-74
2023/09/17 01:49:58;;;;;;;11.80;6.90;;;;;;;;;;5027314;28;20128;-73
2023/09/17 01:52:26;;;;;;;12.13;6.80;;;;;;;;;;5030061;28;20051;-73
2023/09/17 01:54:51;;;;;;;14.73;7.15;;;;;;;;;;5031686;28;20563;-73
2023/09/17 01:57:16;;;;;;;10.23;6.68;;;;;;;;;;5028739;28;20064;-74
2023/09/17 01:59:41;;;;;;;9.30;6.50;;;;;;;;;;5028690;28;20499;-73
2023/09/17 02:02:07;;;;;;;13.20;6.72;;;;;;;;;;5029967;28;20018;-73
2023/09/17 02:04:32;;;;;;;11.20;6.93;;;;;;;;;;5029939;28;20104;-74
2023/09/17 02:06:57;;;;;;;11.90;6.57;;;;;;;;;;5030150;28;20084;-73
2023/09/17 02:09:22;;;;;;;11.87;6.13;;;;;;;;;;5028963;28;20296;-74
2023/09/17 02:11:49;;;;;;;18.38;6.65;;;;;;;;;;5036207;28;20513;-74
2023/09/17 02:14:15;;;;;;;12.30;6.50;;;;;;;;;;5027811;28;20546;-74
2023/09/17 02:16:40;;;;;;;8.98;6.30;;;;;;;;;;5034444;28;20104;-74
2023/09/17 02:19:05;;;;;;;9.85;6.75;;;;;;;;;;5025687;28;20112;-74
2023/09/17 02:21:30;;;;;;;13.30;6.83;;;;;;;;;;5025788;28;20025;-73
2023/09/17 02:23:55;;;;;;;11.27;7.43;;;;;;;;;;5026410;28;20515;-73
2023/09/17 02:26:21;;;;;;;12.30;7.30;;;;;;;;;;5027041;28;20021;-74
2023/09/17 02:28:46;;;;;;;10.50;6.65;;;;;;;;;;5024729;28;20104;-74
2023/09/17 02:31:13;;;;;;;12.30;7.57;;;;;;;;;;5027531;28;20089;-74
2023/09/17 02:33:38;;;;;;;16.48;7.35;;;;;;;;;;5032455;28;20443;-73
2023/09/17 02:36:03;;;;;;;12.93;6.97;;;;;;;;;;5026840;28;20476;-73
2023/09/17 02:38:28;;;;;;;13.05;6.80;;;;;;;;;;5032904;28;20017;-73
2023/09/17 02:40:54;;;;;;;10.27;7.17;;;;;;;;;;5027287;28;20061;-74
2023/09/17 02:43:19;;;;;;;12.95;6.72;;;;;;;;;;5028794;28;20318;-74
2023/09/17 02:45:44;;;;;;;9.98;6.70;;;;;;;;;;5032069;28;20029;-73
2023/09/17 02:48:11;;;;;;;9.60;6.57;;;;;;;;;;5035138;28;20017;-74
2023/09/17 02:50:39;;;;;;;13.90;7.20;;;;;;;;;;5024752;28;20022;-73
2023/09/17 02:53:04;;;;;;;13.07;7.70;;;;;;;;;;5031832;28;20043;-73
2023/09/17 02:55:31;;;;;;;13.53;7.07;;;;;;;;;;5029873;28;20571;-74
2023/09/17 02:57:56;;;;;;;12.90;7.10;;;;;;;;;;5027514;28;20284;-74
2023/09/17 03:00:21;;;;;;;11.23;6.93;;;;;;;;;;5030759;28;20159;-73
2023/09/17 03:02:47;;;;;;;11.13;7.40;;;;;;;;;;5029959;28;20021;-73
2023/09/17 03:05:14;;;;;;;11.07;7.10;;;;;;;;;;5024584;28;20790;-74
2023/09/17 03:07:39;;;;;;;9.63;6.95;;;;;;;;;;5023592;28;20014;-74
2023/09/17 03:10:10;;;;;;;10.98;7.55;;;;;;;;;;5022374;28;20021;-74
2023/09/17 03:12:36;;;;;;;11.60;6.63;;;;;;;;;;5018907;28;20091;-73
2023/09/17 03:15:01;;;;;;;16.02;7.05;;;;;;;;;;5027396;28;20041;-73
2023/09/17 03:17:26;;;;;;;12.52;6.07;;;;;;;;;;5017271;28;20025;-74
2023/09/17 03:19:51;;;;;;;14.10;6.80;;;;;;;;;;5027011;28;20068;-73
2023/09/17 03:22:17;;;;;;;11.07;6.37;;;;;;;;;;5036323;28;20628;-73
2023/09/17 03:24:42;;;;;;;10.70;6.63;;;;;;;;;;5031741;28;20028;-73
2023/09/17 03:27:07;;;;;;;9.63;6.70;;;;;;;;;;5026894;28;20034;-73
2023/09/17 03:29:32;;;;;;;23.00;7.53;;;;;;;;;;5034230;28;20275;-73
2023/09/17 03:31:58;;;;;;;12.53;7.20;;;;;;;;;;5035952;28;20056;-73
2023/09/17 03:34:23;;;;;;;12.00;6.77;;;;;;;;;;5035900;28;20040;-73
2023/09/17 03:36:48;;;;;;;12.57;7.87;;;;;;;;;;5046491;28;20599;-73
2023/09/17 03:39:13;;;;;;;15.43;7.57;;;;;;;;;;5026522;28;20017;-73
2023/09/17 03:41:40;;;;;;;10.50;6.50;;;;;;;;;;5037727;28;20263;-73
2023/09/17 03:44:05;;;;;;;13.80;7.35;;;;;;;;;;5031383;28;20702;-73
2023/09/17 03:46:32;;;;;;;13.93;8.43;;;;;;;;;;5034954;28;20025;-73
2023/09/17 03:48:58;;;;;;;17.27;7.57;;;;;;;;;;5034737;28;20104;-73
2023/09/17 03:51:23;;;;;;;11.33;7.50;;;;;;;;;;5031040;28;20108;-73
2023/09/17 03:53:49;;;;;;;14.07;7.73;;;;;;;;;;5028196;28;20503;-73
2023/09/17 03:56:15;;;;;;;15.57;8.32;;;;;;;;;;5034265;28;20276;-73
2023/09/17 03:58:40;;;;;;;11.93;7.53;;;;;;;;;;5036361;28;20033;-73
2023/09/17 04:01:06;;;;;;;11.68;7.25;;;;;;;;;;5026302;28;20029;-73
2023/09/17 04:03:32;;;;;;;11.25;6.93;;;;;;;;;;5030807;28;20029;-73
2023/09/17 04:05:57;;;;;;;11.13;7.35;;;;;;;;;;5031378;28;20034;-73
2023/09/17 04:08:22;;;;;;;13.80;7.63;;;;;;;;;;5027486;28;20017;-73
2023/09/17 04:10:49;;;;;;;12.40;7.97;;;;;;;;;;5025698;28;20017;-73
2023/09/17 04:13:14;;;;;;;13.57;7.70;;;;;;;;;;5031084;28;20028;-73
2023/09/17 04:15:39;;;;;;;14.67;8.27;;;;;;;;;;5028698;28;20029;-73
2023/09/17 04:18:05;;;;;;;11.03;6.57;;;;;;;;;;5032363;28;20611;-73
2023/09/17 04:20:30;;;;;;;12.20;7.18;;;;;;;;;;5030476;28;20031;-73
2023/09/17 04:22:55;;;;;;;14.02;7.55;;;;;;;;;;5031736;28;20021;-73
2023/09/17 04:25:20;;;;;;;17.73;7.20;;;;;;;;;;5031283;28;20029;-73
2023/09/17 04:27:47;;;;;;;12.45;7.53;;;;;;;;;;5027949;28;20029;-73
2023/09/17 04:30:13;;;;;;;12.07;8.27;;;;;;;;;;5028856;28;20021;-73
2023/09/17 04:32:40;;;;;;;12.75;7.55;;;;;;;;;;5026529;28;20120;-73
2023/09/17 04:35:07;;;;;;;12.43;7.90;;;;;;;;;;5026625;28;20022;-73
2023/09/17 04:37:33;;;;;;;11.50;7.72;;;;;;;;;;5030807;28;20026;-73
2023/09/17 04:39:58;;;;;;;12.45;7.55;;;;;;;;;;5029372;28;20091;-73
2023/09/17 04:42:23;;;;;;;11.97;8.03;;;;;;;;;;5025950;28;20030;-73
2023/09/17 04:44:48;;;;;;;13.27;8.07;;;;;;;;;;5029510;28;20109;-73
2023/09/17 04:47:13;;;;;;;12.40;7.20;;;;;;;;;;5028186;28;20043;-73
2023/09/17 04:49:39;;;;;;;13.85;7.18;;;;;;;;;;5029391;28;20322;-73
2023/09/17 04:52:05;;;;;;;14.00;7.57;;;;;;;;;;5029647;28;20037;-73
2023/09/17 04:54:30;;;;;;;11.43;7.22;;;;;;;;;;5031270;28;20503;-73
2023/09/17 04:56:55;;;;;;;11.93;7.07;;;;;;;;;;5032412;28;20502;-73
2023/09/17 04:59:20;;;;;;;11.20;7.45;;;;;;;;;;5041293;28;20025;-73
2023/09/17 05:01:45;;;;;;;10.90;7.37;;;;;;;;;;5023367;28;20030;-73
2023/09/17 05:04:11;;;;;;;18.40;7.70;;;;;;;;;;5026570;28;20029;-73
2023/09/17 05:06:36;;;;;;;11.83;6.93;;;;;;;;;;5029771;28;20311;-74
2023/09/17 05:09:01;;;;;;;13.57;6.57;;;;;;;;;;5031039;28;20017;-73
2023/09/17 05:11:27;;;;;;;11.88;7.10;;;;;;;;;;5022506;28;20071;-73
2023/09/17 05:13:52;;;;;;;9.27;6.80;;;;;;;;;;5027812;28;20121;-73
2023/09/17 05:16:17;;;;;;;13.27;7.07;;;;;;;;;;5026119;28;20501;-73
2023/09/17 05:18:43;;;;;;;13.43;6.40;;;;;;;;;;5030579;28;20283;-73
2023/09/17 05:21:09;;;;;;;9.73;5.47;;;;;;;;;;5031260;28;20036;-73
2023/09/17 05:23:34;;;;;;;13.13;5.97;;;;;;;;;;5030656;28;20025;-73
2023/09/17 05:25:59;;;;;;;10.50;6.57;;;;;;;;;;5029665;28;20026;-73
2023/09/17 05:28:25;;;;;;;10.13;5.93;;;;;;;;;;5029773;28;20281;-73
2023/09/17 05:30:52;;;;;;;10.60;5.63;;;;;;;;;;5026206;28;20268;-73
2023/09/17 05:33:18;;;;;;;9.68;5.78;;;;;;;;;;5030835;28;20021;-73
2023/09/17 05:35:43;;;;;;;8.70;6.20;;;;;;;;;;5027983;28;20022;-73
2023/09/17 05:38:08;;;;;;;10.20;5.93;;;;;;;;;;5030827;28;20782;-73
2023/09/17 05:40:34;;;;;;;15.30;5.70;;;;;;;;;;5033998;28;20256;-73
2023/09/17 05:42:59;;;;;;;9.88;5.88;;;;;;;;;;5026974;28;20027;-73
2023/09/17 05:45:26;;;;;;;9.80;5.55;;;;;;;;;;5026379;28;20088;-73
2023/09/17 05:47:51;;;;;;;7.85;5.50;;;;;;;;;;5030475;28;20376;-73
2023/09/17 05:50:17;;;;;;;8.87;5.60;;;;;;;;;;5024796;28;20014;-73
2023/09/17 05:52:42;;;;;;;20.70;6.63;;;;;;;;;;5030068;28;20287;-73
2023/09/17 05:55:07;;;;;;;12.53;5.60;;;;;;;;;;5030562;28;20033;-73
2023/09/17 05:57:32;;;;;;;9.35;5.88;;;;;;;;;;5027092;28;20276;-74
2023/09/17 05:59:58;;;;;;;10.55;5.03;;;;;;;;;;5026402;28;20097;-73
2023/09/17 06:02:23;;;;;;;8.60;5.22;;;;;;;;;;5030594;28;20046;-73
2023/09/17 06:04:52;;;;;;;8.77;5.38;;;;;;;;;;5027537;28;20022;-73
2023/09/17 06:07:18;;;;;;;12.13;6.23;;;;;;;;;;5029131;28;20021;-73
2023/09/17 06:09:43;;;;;;;11.38;5.72;;;;;;;;;;5026142;28;20359;-73
2023/09/17 06:12:09;;;;;;;11.73;7.18;;;;;;;;;;5030203;28;20116;-73
2023/09/17 06:14:34;;;;;;;8.57;5.45;;;;;;;;;;5023710;28;20028;-73
2023/09/17 06:16:59;;;;;;;10.43;5.33;;;;;;;;;;5022876;28;20025;-73
2023/09/17 06:19:26;;;;;;;10.00;5.53;;;;;;;;;;5029415;28;20272;-73
2023/09/17 06:21:52;;;;;;;10.57;5.53;;;;;;;;;;5031919;28;20098;-73
2023/09/17 06:24:17;;;;;;;10.38;5.20;;;;;;;;;;5033111;28;20091;-73
2023/09/17 06:26:42;;;;;;;7.60;4.87;;;;;;;;;;5030880;28;20156;-73
2023/09/17 06:29:08;;;;;;;8.95;6.28;;;;;;;;;;5026957;28;20021;-73
2023/09/17 06:31:33;;;;;;;8.07;4.70;;;;;;;;;;5030649;28;20021;-73
2023/09/17 06:33:58;;;;;;;9.13;5.60;;;;;;;;;;5029374;28;20021;-73
2023/09/17 06:36:23;;;;;;;7.93;4.93;;;;;;;;;;5029579;28;20263;-73
2023/09/17 06:38:49;;;;;;;9.38;5.55;;;;;;;;;;5033551;28;20025;-73
2023/09/17 06:41:14;;;;;;;14.63;5.10;;;;;;;;;;5031802;28;20014;-74
2023/09/17 06:43:39;;;;;;;7.80;4.10;;;;;;;;;;5029351;28;20496;-73
2023/09/17 06:46:04;;;;;;;10.20;5.22;;;;;;;;;;5025941;28;20053;-73
2023/09/17 06:48:30;;;;;;;7.22;4.50;;;;;;;;;;5030823;28;20492;-74
2023/09/17 06:50:56;;;;;;;9.15;5.15;;;;;;;;;;5029711;28;20075;-73
2023/09/17 06:53:21;;;;;;;5.57;4.00;;;;;;;;;;5027081;28;20021;-73
2023/09/17 06:55:46;;;;;;;6.30;4.68;;;;;;;;;;5033342;28;20036;-74
2023/09/17 06:58:12;;;;;;;6.47;4.25;;;;;;;;;;5025692;28;20108;-74
2023/09/17 07:00:37;;;;;;;10.07;4.67;;;;;;;;;;5020668;28;20288;-74
2023/09/17 07:03:02;;;;;;;5.83;4.00;;;;;;;;;;5017559;28;20280;-74
2023/09/17 07:05:27;;;;;;;7.63;4.07;;;;;;;;;;5015979;28;20113;-72
2023/09/17 07:07:53;;;;;;;5.80;3.90;;;;;;;;;;5023130;28;20025;-72
2023/09/17 07:10:18;;;;;;;8.63;4.25;;;;;;;;;;5032584;28;20021;-72
2023/09/17 07:12:43;;;;;;;6.75;3.67;;;;;;;;;;5023420;28;20021;-71
2023/09/17 07:15:10;;;;;;;8.05;4.45;;;;;;;;;;5031886;28;20112;-72
2023/09/17 07:17:35;;;;;;;4.70;3.40;;;;;;;;;;5030785;28;20021;-72
2023/09/17 07:20:01;;;;;;;3.13;2.17;;;;;;;;;;5025917;28;20403;-72
2023/09/17 07:22:26;;;;;;;4.60;3.25;;;;;;;;;;5025831;28;20033;-71
2023/09/17 07:24:56;;;;;;;5.07;3.30;;;;;;;;;;5026272;28;20033;-71
2023/09/17 07:27:21;;;;;;;4.78;3.65;;;;;;;;;;5022991;28;20018;-71
2023/09/17 07:29:48;;;;;;;8.52;3.83;;;;;;;;;;5022739;28;20638;-72
2023/09/17 07:32:13;;;;;;;6.28;3.28;;;;;;;;;;5020469;28;20060;-72
2023/09/17 07:34:38;;;;;;;8.05;4.05;;;;;;;;;;5022324;28;20045;-72
2023/09/17 07:37:04;;;;;;;6.73;3.67;;;;;;;;;;5028046;28;20044;-72
2023/09/17 07:39:29;;;;;;;8.07;3.80;;;;;;;;;;5028963;28;20100;-72
2023/09/17 07:41:54;;;;;;;5.40;3.80;;;;;;;;;;5026059;28;20045;-71
2023/09/17 07:44:20;;;;;;;13.87;4.00;;;;;;;;;;5029167;28;20369;-72
2023/09/17 07:46:45;;;;;;;4.40;2.55;;;;;;;;;;5027118;28;20480;-72
2023/09/17 07:49:10;;;;;;;7.00;2.77;;;;;;;;;;5026266;28;20113;-72
2023/09/17 07:51:36;;;;;;;5.50;3.90;;;;;;;;;;5023998;28;20017;-72
2023/09/17 07:54:01;;;;;;;6.10;3.97;;;;;;;;;;5020956;28;20264;-72
2023/09/17 07:56:26;;;;;;;5.50;3.80;;;;;;;;;;5019664;28;20291;-72
2023/09/17 07:58:51;;;;;;;7.17;3.27;;;;;;;;;;5022768;28;20040;-72
2023/09/17 08:01:16;;;;;;;7.70;3.80;;;;;;;;;;5026088;28;20036;-72
2023/09/17 08:03:42;;;;;;;3.72;2.90;;;;;;;;;;5020613;28;20078;-72
2023/09/17 08:06:07;;;;;;;2.00;1.63;;;;;;;;;;5027566;28;20085;-72
2023/09/17 08:08:32;;;;;;;7.47;3.28;;;;;;;;;;5028768;28;20095;-72
2023/09/17 08:10:57;;;;;;;8.25;3.70;;;;;;;;;;5025489;28;20954;-73
2023/09/17 08:13:23;;;;;;;6.90;3.57;;;;;;;;;;5026387;28;20021;-72
2023/09/17 08:15:50;;;;;;;5.90;3.40;;;;;;;;;;5023375;28;20797;-73
2023/09/17 08:18:15;;;;;;;7.10;3.60;;;;;;;;;;5030633;28;20101;-73
2023/09/17 08:20:41;;;;;;;5.70;3.43;;;;;;;;;;5036875;28;20096;-73
2023/09/17 08:23:06;;;;;;;6.75;3.30;;;;;;;;;;5035932;28;20353;-73
2023/09/17 08:25:33;;;;;;;8.80;3.57;;;;;;;;;;5030669;28;20391;-73
2023/09/17 08:27:58;;;;;;;5.63;2.90;;;;;;;;;;5035088;28;20275;-73
2023/09/17 08:30:24;;;;;;;5.90;3.90;;;;;;;;;;5036007;28;20010;-73
2023/09/17 08:32:49;;;;;;;6.68;3.63;;;;;;;;;;5034893;28;20018;-73
2023/09/17 08:35:14;;;;;;;6.78;3.50;;;;;;;;;;5033905;28;20028;-73
2023/09/17 08:37:40;;;;;;;8.20;3.83;;;;;;;;;;5036492;28;20454;-73
2023/09/17 08:40:09;;;;;;;6.43;2.63;;;;;;;;;;5033845;28;20800;-72
2023/09/17 08:42:34;;;;;;;10.87;3.50;;;;;;;;;;5036738;28;20109;-72
2023/09/17 08:45:00;;;;;;;7.40;3.60;;;;;;;;;;5035724;28;20113;-72
2023/09/17 08:47:25;;;;;;;6.95;3.67;;;;;;;;;;5033402;28;20032;-72
2023/09/17 08:49:51;;;;;;;8.43;3.60;;;;;;;;;;5032557;28;20017;-72
2023/09/17 08:52:18;;;;;;;4.70;3.38;;;;;;;;;;5034576;28;20066;-72
2023/09/17 08:54:44;;;;;;;11.07;4.13;;;;;;;;;;5037642;28;20400;-73
2023/09/17 08:57:10;;;;;;;5.43;4.05;;;;;;;;;;5033151;28;20026;-73
2023/09/17 08:59:38;;;;;;;4.72;3.40;;;;;;;;;;5031211;28;20029;-72
2023/09/17 09:02:07;;;;;;;4.88;3.28;;;;;;;;;;5032536;28;20021;-72
2023/09/17 09:04:34;;;;;;;13.27;4.68;;;;;;;;;;5029516;28;20036;-72
2023/09/17 09:07:01;;;;;;;9.40;3.78;;;;;;;;;;5030584;28;20380;-72
2023/09/17 09:09:26;;;;;;;4.82;2.50;;;;;;;;;;5030718;28;20091;-72
2023/09/17 09:11:52;;;;;;;6.47;3.53;;;;;;;;;;5033266;28;20048;-72
2023/09/17 09:14:17;;;;;;;6.80;3.85;;;;;;;;;;5031682;28;20439;-72
2023/09/17 09:16:44;;;;;;;7.32;4.30;;;;;;;;;;5037809;28;20025;-72
2023/09/17 09:19:09;;;;;;;5.78;3.20;;;;;;;;;;5024249;28;20031;-73
2023/09/17 09:21:35;;;;;;;8.00;3.17;;;;;;;;;;5030447;28;20096;-72
2023/09/17 09:24:01;;;;;;;6.68;2.78;;;;;;;;;;5037275;28;20259;-73
2023/09/17 09:26:33;;;;;;;10.02;3.95;;;;;;;;;;5029577;28;20026;-72
2023/09/17 09:28:58;;;;;;;4.30;3.40;;;;;;;;;;5031959;28;20033;-72
2023/09/17 09:31:26;;;;;;;3.53;2.63;;;;;;;;;;5027897;28;20048;-72
2023/09/17 09:33:51;;;;;;;7.43;4.00;;;;;;;;;;5030197;28;20741;-72
2023/09/17 09:36:18;;;;;;;5.85;3.65;;;;;;;;;;5027173;28;20049;-72
2023/09/17 09:38:44;;;;;;;6.82;3.35;;;;;;;;;;5032364;28;20039;-72
2023/09/17 09:41:10;;;;;;;7.28;3.08;;;;;;;;;;5034978;28;20559;-73
2023/09/17 09:43:35;;;;;;;6.78;3.72;;;;;;;;;;5038383;28;20044;-72
2023/09/17 09:46:04;;;;;;;5.85;2.90;;;;;;;;;;5038093;28;20503;-72
2023/09/17 09:48:30;;;;;;;3.08;2.08;;;;;;;;;;5036410;28;20021;-72
2023/09/17 09:50:55;;;;;;;5.57;3.70;;;;;;;;;;5035718;28;20028;-72
2023/09/17 09:53:20;;;;;;;4.10;2.45;;;;;;;;;;5032139;28;20022;-72
2023/09/17 09:55:46;;;;;;;5.00;3.30;;;;;;;;;;5020474;28;20029;-72
2023/09/17 09:58:13;;;;;;;6.53;3.85;;;;;;;;;;5029713;28;20036;-72
2023/09/17 10:00:44;;;;;;;26.88;3.45;;;;;;;;;;5028374;28;20463;-72
2023/09/17 10:03:10;;;;;;;6.10;3.35;;;;;;;;;;5033141;28;20022;-72
2023/09/17 10:05:40;;;;;;;7.22;3.35;;;;;;;;;;5028737;28;20017;-73
2023/09/17 10:08:05;;;;;;;;;;;;;;;;;;5029177;28;20017;-73
2023/09/17 10:10:31;;;;;;;7.07;3.35;;;;;;;;;;5035485;28;19912;-72
2023/09/17 10:12:56;;;;;;;5.68;3.05;;;;;;;;;;5027900;28;20021;-72
2023/09/17 10:15:22;;;;;;;5.85;3.63;;;;;;;;;;5032437;28;20083;-72
2023/09/17 10:17:47;;;;;;;6.75;2.78;;;;;;;;;;5038220;28;20032;-72
2023/09/17 10:20:13;;;;;;;5.88;3.80;;;;;;;;;;5033092;28;20104;-72
2023/09/17 10:22:39;;;;;;;6.47;3.30;;;;;;;;;;5037369;28;20427;-72
2023/09/17 10:25:06;;;;;;;5.07;1.85;;;;;;;;;;5031512;28;20486;-72
2023/09/17 10:27:35;;;;;;;4.10;2.85;;;;;;;;;;5029130;28;20087;-72
2023/09/17 10:30:03;;;;;;;6.05;3.25;;;;;;;;;;5034536;28;20055;-72
2023/09/17 10:32:29;;;;;;;3.83;2.60;;;;;;;;;;5034993;28;20148;-72
2023/09/17 10:34:57;;;;;;;4.13;3.15;;;;;;;;;;5027641;28;20041;-73
2023/09/17 10:37:23;;;;;;;5.50;3.38;;;;;;;;;;5031528;28;20021;-72
2023/09/17 10:39:48;;;;;;;5.90;2.60;;;;;;;;;;5030386;28;20398;-72
2023/09/17 10:42:15;;;;;;;5.97;3.25;;;;;;;;;;5026955;28;20452;-72
2023/09/17 10:44:42;;;;;;;11.02;3.45;;;;;;;;;;5035493;28;20203;-72
2023/09/17 10:47:12;;;;;;;4.68;2.75;;;;;;;;;;5031180;28;20099;-73
2023/09/17 10:49:38;;;;;;;7.95;3.08;;;;;;;;;;5035732;28;20009;-73
2023/09/17 10:52:05;;;;;;;8.77;3.38;;;;;;;;;;5031843;28;20029;-73
2023/09/17 10:54:30;;;;;;;5.88;3.13;;;;;;;;;;5030721;28;20021;-73
2023/09/17 10:56:55;;;;;;;5.77;3.10;;;;;;;;;;5030105;28;20021;-73
2023/09/17 10:59:21;;;;;;;3.88;1.92;;;;;;;;;;5032210;28;20032;-73
2023/09/17 11:01:47;;;;;;;6.63;2.90;;;;;;;;;;5037431;28;20067;-73
2023/09/17 11:04:15;;;;;;;6.30;2.97;;;;;;;;;;5031105;28;20076;-73
2023/09/17 11:06:42;;;;;;;8.07;2.90;;;;;;;;;;5030248;28;20026;-73
2023/09/17 11:09:07;;;;;;;9.38;3.08;;;;;;;;;;5016689;28;20048;-73
2023/09/17 11:11:33;;;;;;;6.20;3.67;;;;;;;;;;5021364;28;20512;-73
2023/09/17 11:13:58;;;;;;;4.15;3.13;;;;;;;;;;5025250;28;20687;-73
2023/09/17 11:16:24;;;;;;;7.35;2.75;;;;;;;;;;5025654;28;20083;-72
2023/09/17 11:19:08;;;;;;;5.32;3.13;;;;;;;;;;5026954;28;20024;-73
2023/09/17 11:21:37;;;;;;;6.70;3.08;;;;;;;;;;5026793;28;20036;-73
2023/09/17 11:24:06;;;;;;;3.75;2.22;;;;;;;;;;5024009;28;20036;-73
2023/09/17 11:26:31;;;;;;;3.73;2.03;;;;;;;;;;5014840;28;20022;-73
2023/09/17 11:28:57;;;;;;;3.35;2.05;;;;;;;;;;5019989;28;20635;-73
2023/09/17 11:31:25;;;;;;;3.60;2.50;;;;;;;;;;5027578;28;20024;-73
2023/09/17 11:33:51;;;;;;;7.35;2.85;;;;;;;;;;5014856;28;20037;-73
2023/09/17 11:36:16;;;;;;;4.55;3.10;;;;;;;;;;5026330;28;20025;-73
2023/09/17 11:38:46;;;;;;;3.83;2.92;;;;;;;;;;5025949;28;20458;-73
2023/09/17 11:41:12;;;;;;;5.55;2.80;;;;;;;;;;5021811;28;21679;-73
2023/09/17 11:43:38;;;;;;;5.20;3.10;;;;;;;;;;5026111;28;20030;-73
2023/09/17 11:46:05;;;;;;;4.32;3.03;;;;;;;;;;5024327;28;20100;-73
2023/09/17 11:48:37;;;;;;;5.25;3.10;;;;;;;;;;5021377;28;20022;-73
2023/09/17 11:51:20;;;;;;;6.47;3.20;;;;;;;;;;5020970;28;20025;-73
2023/09/17 11:54:05;;;;;;;7.28;3.58;;;;;;;;;;5032101;28;20018;-73
2023/09/17 11:56:45;;;;;;;6.40;2.70;;;;;;;;;;5026710;28;20021;-73
2023/09/17 11:59:15;;;;;;;5.40;2.88;;;;;;;;;;5031685;28;20400;-73
2023/09/17 12:01:48;;;;;;;5.93;3.03;;;;;;;;;;5030325;28;20021;-73
2023/09/17 12:04:14;;;;;;;4.68;3.05;;;;;;;;;;5028470;28;20025;-73
2023/09/17 12:06:40;;;;;;;3.30;2.25;;;;;;;;;;5031285;28;20435;-73
2023/09/17 12:09:58;;;;;;;6.63;2.97;;;;;;;;;;5026490;28;20010;-73
2023/09/17 12:11:55;;;;;;;10.93;3.10;;;;;;;;;;5012879;28;20094;-72
2023/09/17 12:14:21;;;;;;;6.93;3.20;;;;;;;;;;5026557;28;21172;-73
2023/09/17 12:16:48;;;;;;;6.28;2.65;;;;;;;;;;5020652;28;20197;-73
2023/09/17 12:19:13;;;;;;;7.72;3.03;;;;;;;;;;5023816;28;20027;-72
2023/09/17 12:21:39;;;;;;;4.60;2.60;;;;;;;;;;5029702;28;20092;-73
2023/09/17 12:24:08;;;;;;;9.05;3.03;;;;;;;;;;5033220;28;20259;-72
2023/09/17 12:26:54;;;;;;;5.25;2.70;;;;;;;;;;5031493;28;20029;-73
2023/09/17 12:29:20;;;;;;;7.00;2.53;;;;;;;;;;5032137;28;20499;-72
2023/09/17 12:31:45;;;;;;;5.53;2.60;;;;;;;;;;5026081;28;20040;-72
2023/09/17 12:34:10;;;;;;;5.00;2.63;;;;;;;;;;5030017;28;20393;-73
2023/09/17 12:36:36;;;;;;;5.53;2.30;;;;;;;;;;5030882;28;20029;-72
2023/09/17 12:39:01;;;;;;;3.50;2.22;;;;;;;;;;5031015;28;20017;-73
2023/09/17 12:41:26;;;;;;;3.90;2.10;;;;;;;;;;5027978;28;20021;-72
2023/09/17 12:43:51;;;;;;;4.63;2.50;;;;;;;;;;5031159;28;20105;-73
2023/09/17 12:46:16;;;;;;;3.73;2.50;;;;;;;;;;5036415;28;20025;-72
2023/09/17 12:48:42;;;;;;;4.50;2.70;;;;;;;;;;5032757;28;20272;-73
2023/09/17 12:51:07;;;;;;;6.78;2.00;;;;;;;;;;5031468;28;20287;-73
2023/09/17 12:53:32;;;;;;;3.60;2.33;;;;;;;;;;5030028;28;20025;-73
2023/09/17 12:55:59;;;;;;;3.05;2.13;;;;;;;;;;5032555;28;20493;-73
2023/09/17 12:58:24;;;;;;;7.65;1.80;;;;;;;;;;5031342;28;20033;-73
2023/09/17 13:00:49;;;;;;;6.97;2.23;;;;;;;;;;5033128;28;20037;-73
2023/09/17 13:03:14;;;;;;;5.80;2.10;;;;;;;;;;5029435;28;20264;-73
2023/09/17 13:05:40;;;;;;;5.80;2.53;;;;;;;;;;5026970;28;20112;-73
2023/09/17 13:08:06;;;;;;;3.75;2.25;;;;;;;;;;5027797;28;20429;-73
2023/09/17 13:10:32;;;;;;;2.55;1.95;;;;;;;;;;5027166;28;20025;-73
2023/09/17 13:12:57;;;;;;;3.60;2.45;;;;;;;;;;5032112;28;20016;-73
2023/09/17 13:15:22;;;;;;;3.23;2.10;;;;;;;;;;5027491;28;20966;-73
2023/09/17 13:17:47;;;;;;;4.63;1.93;;;;;;;;;;5030300;28;20268;-73
2023/09/17 13:20:12;;;;;;;2.10;1.20;;;;;;;;;;5031444;28;20645;-74
2023/09/17 13:22:39;;;;;;;1.77;1.35;;;;;;;;;;5025536;28;20372;-73
2023/09/17 13:25:06;;;;;;;4.25;2.03;;;;;;;;;;5032102;28;20448;-73
2023/09/17 13:27:31;;;;;;;5.68;1.50;;;;;;;;;;5028692;28;20022;-73
2023/09/17 13:29:56;;;;;;;2.63;1.60;;;;;;;;;;5030903;28;20020;-73
2023/09/17 13:32:22;;;;;;;2.35;1.85;;;;;;;;;;5028801;28;20068;-73
2023/09/17 13:34:47;;;;;;;5.20;2.08;;;;;;;;;;5036568;28;20100;-73
2023/09/17 13:37:13;;;;;;;4.80;1.48;;;;;;;;;;5027102;28;20495;-73
2023/09/17 13:39:42;;;;;;;4.65;1.50;;;;;;;;;;5031598;28;20191;-73
2023/09/17 13:42:07;;;;;;;4.15;1.92;;;;;;;;;;5027638;28;20017;-73
2023/09/17 13:44:35;;;;;;;9.30;1.95;;;;;;;;;;5029736;28;20033;-74
2023/09/17 13:47:01;;;;;;;2.63;1.70;;;;;;;;;;5031674;28;20434;-73
2023/09/17 13:49:26;;;;;;;5.00;1.60;;;;;;;;;;5028967;28;20063;-73
2023/09/17 13:51:51;;;;;;;2.15;1.42;;;;;;;;;;5029725;28;20695;-73
2023/09/17 13:54:16;;;;;;;3.97;1.80;;;;;;;;;;5030617;28;20009;-73
2023/09/17 13:56:41;;;;;;;1.80;1.03;;;;;;;;;;5031552;28;20523;-73
2023/09/17 13:59:07;;;;;;;2.40;1.50;;;;;;;;;;5032510;28;20079;-73
2023/09/17 14:01:32;;;;;;;2.23;1.50;;;;;;;;;;5029017;28;20068;-73
2023/09/17 14:03:57;;;;;;;4.13;1.52;;;;;;;;;;5029522;28;20056;-73
2023/09/17 14:06:22;;;;;;;3.00;1.70;;;;;;;;;;5031553;28;20037;-73
2023/09/17 14:08:47;;;;;;;3.20;1.53;;;;;;;;;;5031831;28;20028;-73
2023/09/17 14:11:13;;;;;;;5.37;1.83;;;;;;;;;;5031620;28;20376;-73
2023/09/17 14:13:38;;;;;;;4.40;1.77;;;;;;;;;;5026240;28;20778;-73
2023/09/17 14:16:04;;;;;;;3.63;2.05;;;;;;;;;;5032953;28;20251;-73
2023/09/17 14:18:29;;;;;;;2.50;1.67;;;;;;;;;;5031085;28;20055;-73
2023/09/17 14:20:55;;;;;;;3.63;1.50;;;;;;;;;;5031358;28;20030;-73
2023/09/17 14:23:21;;;;;;;3.88;1.52;;;;;;;;;;5031844;28;20095;-73
2023/09/17 14:25:46;;;;;;;9.02;2.15;;;;;;;;;;5029986;28;20472;-73
2023/09/17 14:28:11;;;;;;;5.50;1.90;;;;;;;;;;5020336;28;20431;-75
2023/09/17 14:30:36;;;;;;;3.33;1.67;;;;;;;;;;5022389;28;20107;-74
2023/09/17 14:33:02;;;;;;;5.05;2.13;;;;;;;;;;5024601;28;20025;-74